TimeEST,TemperatureF,Dew PointF,Humidity,Sea Level PressureIn,VisibilityMPH,Wind Direction,Wind SpeedMPH,Gust SpeedMPH,PrecipitationIn,Events,Conditions,WindDirDegrees,DateUTC
12:53 AM,48.9,46.9,93,30.04,8.0,Calm,Calm,-,N/A,,Clear,0,2012-12-08 05:53:00
1:53 AM,48.0,46.9,96,30.04,6.0,Calm,Calm,-,N/A,,Clear,0,2012-12-08 06:53:00
2:53 AM,48.9,46.9,93,30.04,7.0,Calm,Calm,-,N/A,,Partly Cloudy,0,2012-12-08 07:53:00
3:53 AM,48.0,46.0,93,30.03,5.0,Calm,Calm,-,N/A,,Partly Cloudy,0,2012-12-08 08:53:00
4:53 AM,48.0,46.0,93,30.03,5.0,Calm,Calm,-,N/A,,Mostly Cloudy,0,2012-12-08 09:53:00
6:53 AM,46.9,45.0,93,30.05,7.0,Calm,Calm,-,N/A,,Clear,0,2012-12-08 11:53:00
7:49 AM,44.6,44.6,100,30.07,2.5,Calm,Calm,-,N/A,,Clear,0,2012-12-08 12:49:00
7:53 AM,46.0,45.0,96,30.07,2.5,Calm,Calm,-,N/A,,Partly Cloudy,0,2012-12-08 12:53:00
8:05 AM,46.4,44.6,93,30.07,3.0,Calm,Calm,-,N/A,,Partly Cloudy,0,2012-12-08 13:05:00
8:53 AM,50.0,48.0,93,30.08,7.0,Calm,Calm,-,N/A,,Clear,0,2012-12-08 13:53:00
9:53 AM,53.1,50.0,89,30.10,9.0,Calm,Calm,-,N/A,,Overcast,0,2012-12-08 14:53:00
10:53 AM,55.0,48.9,80,30.09,9.0,Calm,Calm,-,N/A,,Overcast,0,2012-12-08 15:53:00
11:53 AM,60.1,51.1,72,30.07,10.0,South,3.5,-,N/A,,Overcast,170,2012-12-08 16:53:00
12:53 PM,62.1,52.0,70,30.05,10.0,Calm,Calm,-,N/A,,Overcast,0,2012-12-08 17:53:00
1:53 PM,63.0,53.1,70,30.02,10.0,ENE,3.5,-,N/A,,Overcast,70,2012-12-08 18:53:00
2:53 PM,64.0,53.1,67,30.02,10.0,ESE,4.6,-,N/A,,Overcast,120,2012-12-08 19:53:00
3:53 PM,64.9,53.1,65,30.03,10.0,Calm,Calm,-,N/A,,Partly Cloudy,0,2012-12-08 20:53:00
4:53 PM,64.0,54.0,70,30.03,10.0,ESE,4.6,-,N/A,,Mostly Cloudy,110,2012-12-08 21:53:00
5:53 PM,63.0,53.1,70,30.04,10.0,ESE,3.5,-,N/A,,Overcast,110,2012-12-08 22:53:00
6:53 PM,63.0,54.0,72,30.05,10.0,SE,4.6,-,N/A,,Mostly Cloudy,130,2012-12-08 23:53:00
7:53 PM,61.0,54.0,78,30.06,10.0,SE,4.6,-,N/A,,Scattered Clouds,140,2012-12-09 00:53:00
8:53 PM,61.0,54.0,78,30.07,10.0,SSE,3.5,-,N/A,,Mostly Cloudy,150,2012-12-09 01:53:00
9:53 PM,59.0,54.0,83,30.08,10.0,SSE,3.5,-,N/A,,Partly Cloudy,150,2012-12-09 02:53:00
10:53 PM,59.0,54.0,83,30.07,10.0,ESE,4.6,-,N/A,,Clear,120,2012-12-09 03:53:00
11:53 PM,57.9,54.0,87,30.07,10.0,ESE,5.8,-,N/A,,Mostly Cloudy,120,2012-12-09 04:53:00